createdAt,value
2022-11-26T00:00:25.814Z,7.83
2022-11-26T00:02:54.633Z,8.53
2022-11-26T00:05:23.578Z,7.70
2022-11-26T00:07:55.040Z,8.57
2022-11-26T00:10:24.519Z,9.03
2022-11-26T00:12:52.782Z,7.30
2022-11-26T00:15:23.866Z,7.50
2022-11-26T00:17:52.435Z,8.40
2022-11-26T00:20:22.939Z,8.17
2022-11-26T00:22:51.901Z,8.60
2022-11-26T00:25:20.938Z,7.63
2022-11-26T00:27:49.272Z,8.17
2022-11-26T00:30:19.151Z,7.80
2022-11-26T00:32:49.123Z,8.03
2022-11-26T00:35:17.720Z,8.50
2022-11-26T00:37:47.324Z,7.60
2022-11-26T00:40:25.304Z,8.63
2022-11-26T00:42:57.409Z,8.23
2022-11-26T00:45:29.510Z,8.83
2022-11-26T00:48:00.513Z,8.77
2022-11-26T00:50:28.852Z,9.33
2022-11-26T00:52:57.473Z,8.67
2022-11-26T00:55:28.888Z,8.73
2022-11-26T00:57:57.169Z,9.57
2022-11-26T01:00:26.350Z,8.83
2022-11-26T01:02:54.582Z,9.50
2022-11-26T01:05:26.019Z,9.23
2022-11-26T01:07:54.254Z,9.50
2022-11-26T01:10:23.316Z,8.73
2022-11-26T01:12:52.167Z,9.40
2022-11-26T01:15:21.644Z,9.40
2022-11-26T01:17:49.823Z,9.87
2022-11-26T01:20:25.766Z,8.75
2022-11-26T01:22:54.428Z,10.00
2022-11-26T01:25:23.175Z,9.23
2022-11-26T01:27:51.420Z,9.47
2022-11-26T01:30:21.336Z,9.57
2022-11-26T01:32:49.804Z,8.80
2022-11-26T01:35:18.269Z,10.10
2022-11-26T01:37:47.980Z,9.20
2022-11-26T01:40:34.478Z,9.10
2022-11-26T01:43:05.506Z,9.70
2022-11-26T01:45:33.885Z,9.30
2022-11-26T01:48:02.137Z,8.93
2022-11-26T01:51:01.387Z,8.87
2022-11-26T01:53:36.164Z,8.50
2022-11-26T01:56:07.064Z,9.20
2022-11-26T01:58:39.912Z,8.60
2022-11-26T02:01:08.564Z,8.67
2022-11-26T02:03:41.039Z,8.53
2022-11-26T02:06:11.842Z,8.57
2022-11-26T02:08:41.466Z,8.83
2022-11-26T02:11:17.476Z,8.83
2022-11-26T02:13:46.814Z,8.70
2022-11-26T02:16:19.467Z,8.87
2022-11-26T02:18:51.120Z,8.50
2022-11-26T02:21:21.228Z,9.07
2022-11-26T02:24:19.969Z,8.97
2022-11-26T02:27:13.399Z,8.30
2022-11-26T02:30:13.511Z,8.20
2022-11-26T02:32:52.390Z,8.73
2022-11-26T02:35:23.331Z,7.90
2022-11-26T02:37:53.800Z,8.87
2022-11-26T02:40:22.138Z,8.47
2022-11-26T02:42:50.380Z,7.07
2022-11-26T02:45:21.418Z,7.83
2022-11-26T02:47:53.877Z,7.17
2022-11-26T02:50:23.941Z,8.10
2022-11-26T02:52:52.196Z,7.77
2022-11-26T02:55:20.958Z,7.57
2022-11-26T02:57:50.406Z,7.80
2022-11-26T03:00:21.244Z,6.87
2022-11-26T03:02:50.645Z,7.70
2022-11-26T03:05:19.260Z,7.63
2022-11-26T03:07:48.169Z,7.03
2022-11-26T03:10:16.511Z,7.90
2022-11-26T03:12:44.717Z,7.20
2022-11-26T03:15:13.192Z,7.67
2022-11-26T03:17:42.788Z,7.20
2022-11-26T03:20:11.242Z,7.77
2022-11-26T03:22:39.507Z,6.80
2022-11-26T03:25:09.088Z,7.07
2022-11-26T03:27:37.352Z,7.20
2022-11-26T03:30:06.513Z,7.80
2022-11-26T03:32:34.798Z,7.60
2022-11-26T03:35:04.642Z,7.53
2022-11-26T03:37:32.898Z,7.20
2022-11-26T03:40:01.049Z,7.30
2022-11-26T03:42:29.550Z,7.87
2022-11-26T03:44:57.707Z,7.80
2022-11-26T03:47:25.891Z,7.17
2022-11-26T03:49:54.093Z,7.53
2022-11-26T03:52:23.716Z,7.77
2022-11-26T03:54:53.283Z,7.37
2022-11-26T03:57:22.270Z,6.63
2022-11-26T03:59:50.500Z,7.23
2022-11-26T04:02:18.745Z,7.13
2022-11-26T04:04:47.026Z,6.80
2022-11-26T04:07:15.628Z,6.90
2022-11-26T04:09:45.326Z,6.80
2022-11-26T04:12:13.497Z,6.57
2022-11-26T04:14:41.924Z,6.43
2022-11-26T04:17:10.243Z,6.93
2022-11-26T04:19:38.437Z,6.60
2022-11-26T04:22:06.916Z,6.37
2022-11-26T04:24:35.246Z,6.50
2022-11-26T04:27:04.980Z,7.60
2022-11-26T04:29:33.360Z,6.80
2022-11-26T04:32:01.668Z,7.60
2022-11-26T04:34:30.216Z,7.13
2022-11-26T04:36:58.422Z,7.37
2022-11-26T04:39:26.662Z,7.50
2022-11-26T04:41:54.839Z,7.53
2022-11-26T04:44:24.693Z,7.43
2022-11-26T04:46:52.885Z,7.30
2022-11-26T04:49:21.416Z,7.13
2022-11-26T04:51:49.589Z,7.67
2022-11-26T04:54:17.826Z,7.80
2022-11-26T04:56:46.017Z,7.80
2022-11-26T04:59:14.278Z,7.30
2022-11-26T05:01:44.065Z,7.40
2022-11-26T05:04:12.618Z,8.23
2022-11-26T05:06:40.780Z,7.53
2022-11-26T05:09:08.946Z,7.37
2022-11-26T05:11:37.118Z,7.67
2022-11-26T05:14:05.312Z,7.60
2022-11-26T05:16:33.822Z,8.30
2022-11-26T05:19:03.513Z,7.93
2022-11-26T05:21:31.709Z,9.57
2022-11-26T05:23:59.904Z,8.60
2022-11-26T05:26:28.179Z,8.50
2022-11-26T05:28:57.706Z,8.77
2022-11-26T05:31:25.951Z,8.37
2022-11-26T05:33:54.262Z,8.87
2022-11-26T05:36:23.894Z,8.70
2022-11-26T05:38:52.065Z,8.57
2022-11-26T05:41:20.615Z,9.53
2022-11-26T05:43:48.838Z,9.50
2022-11-26T05:46:17.645Z,9.57
2022-11-26T05:48:45.885Z,9.13
2022-11-26T05:51:14.038Z,9.37
2022-11-26T05:53:43.628Z,9.80
2022-11-26T05:56:12.184Z,10.07
2022-11-26T05:58:40.431Z,11.77
2022-11-26T06:01:09.787Z,9.40
2022-11-26T06:03:38.144Z,9.90
2022-11-26T06:06:06.789Z,10.20
2022-11-26T06:08:35.250Z,10.23
2022-11-26T06:11:04.814Z,10.23
2022-11-26T06:13:32.979Z,10.70
2022-11-26T06:16:01.287Z,10.20
2022-11-26T06:18:29.618Z,10.90
2022-11-26T06:21:01.256Z,10.40
2022-11-26T06:23:29.811Z,10.23
2022-11-26T06:25:58.044Z,9.73
2022-11-26T06:28:27.669Z,9.60
2022-11-26T06:30:55.896Z,10.80
2022-11-26T06:33:24.077Z,9.37
2022-11-26T06:35:52.601Z,9.90
2022-11-26T06:38:20.764Z,10.43
2022-11-26T06:40:48.943Z,11.10
2022-11-26T06:43:17.074Z,10.77
2022-11-26T06:45:46.637Z,9.77
2022-11-26T06:48:14.867Z,9.43
2022-11-26T06:50:43.434Z,11.33
2022-11-26T06:53:11.653Z,15.73
2022-11-26T06:55:39.880Z,14.10
2022-11-26T06:58:08.136Z,22.93
2022-11-26T07:00:36.308Z,17.60
2022-11-26T07:03:06.180Z,18.70
2022-11-26T07:05:35.379Z,13.67
2022-11-26T07:08:03.557Z,12.30
2022-11-26T07:10:31.728Z,10.63
2022-11-26T07:13:00.386Z,9.43
2022-11-26T07:15:28.583Z,8.40
2022-11-26T07:17:57.045Z,8.27
2022-11-26T07:20:26.699Z,8.10
2022-11-26T07:22:54.918Z,8.40
2022-11-26T07:25:23.078Z,8.53
2022-11-26T07:27:51.310Z,9.00
2022-11-26T07:30:19.997Z,8.43
2022-11-26T07:32:48.228Z,7.90
2022-11-26T07:35:19.464Z,8.03
2022-11-26T07:37:49.078Z,8.07
2022-11-26T07:40:17.362Z,9.70
2022-11-26T07:42:50.393Z,8.87
2022-11-26T07:45:25.751Z,8.07
2022-11-26T07:47:53.987Z,7.80
2022-11-26T07:50:22.231Z,8.23
2022-11-26T07:52:54.324Z,8.17
2022-11-26T07:55:22.546Z,8.50
2022-11-26T07:57:50.696Z,7.87
2022-11-26T08:00:20.255Z,8.73
2022-11-26T08:02:48.459Z,8.23
2022-11-26T08:05:17.054Z,9.13
2022-11-26T08:07:45.302Z,8.37
2022-11-26T08:10:15.248Z,9.27
2022-11-26T08:12:43.803Z,8.63
2022-11-26T08:15:12.536Z,8.03
2022-11-26T08:17:40.720Z,7.67
2022-11-26T08:20:09.880Z,9.43
2022-11-26T08:22:38.160Z,8.47
2022-11-26T08:25:07.395Z,8.77
2022-11-26T08:27:37.054Z,8.63
2022-11-26T08:30:06.219Z,7.80
2022-11-26T08:32:34.717Z,8.97
2022-11-26T08:35:03.310Z,8.77
2022-11-26T08:37:31.528Z,7.87
2022-11-26T08:40:02.065Z,8.13
2022-11-26T08:42:30.597Z,7.47
2022-11-26T08:45:00.191Z,8.20
2022-11-26T08:47:29.259Z,7.93
2022-11-26T08:49:57.496Z,7.33
2022-11-26T08:52:25.756Z,7.20
2022-11-26T08:54:54.267Z,6.50
2022-11-26T08:57:22.505Z,6.53
2022-11-26T08:59:51.987Z,6.07
2022-11-26T09:02:21.636Z,6.00
2022-11-26T09:04:49.872Z,6.27
2022-11-26T09:07:18.417Z,6.90
2022-11-26T09:09:46.717Z,7.33
2022-11-26T09:12:14.887Z,6.87
2022-11-26T09:14:43.442Z,6.97
2022-11-26T09:17:12.157Z,6.33
2022-11-26T09:19:42.072Z,7.93
2022-11-26T09:22:10.604Z,6.63
2022-11-26T09:24:39.009Z,6.47
2022-11-26T09:27:08.339Z,6.77
2022-11-26T09:29:36.698Z,6.10
2022-11-26T09:32:23.430Z,6.23
2022-11-26T09:34:55.059Z,6.37
2022-11-26T09:37:23.248Z,5.50
2022-11-26T09:39:51.450Z,5.63
2022-11-26T09:42:24.498Z,6.00
2022-11-26T09:45:01.193Z,5.73
2022-11-26T09:47:30.060Z,6.60
2022-11-26T09:50:03.202Z,6.03
2022-11-26T09:52:32.408Z,5.63
2022-11-26T09:55:06.901Z,5.87
2022-11-26T09:57:37.040Z,5.40
2022-11-26T10:00:12.323Z,5.47
2022-11-26T10:02:40.937Z,5.90
2022-11-26T10:05:17.083Z,5.60
2022-11-26T10:07:55.983Z,5.90
2022-11-26T10:10:26.183Z,5.13
2022-11-26T10:15:54.383Z,5.50
2022-11-26T10:18:25.728Z,5.17
2022-11-26T10:21:05.502Z,5.67
2022-11-26T10:23:34.637Z,5.97
2022-11-26T10:26:08.900Z,5.30
2022-11-26T10:28:39.827Z,4.73
2022-11-26T10:31:14.080Z,5.13
2022-11-26T10:33:52.799Z,4.47
2022-11-26T10:36:25.344Z,4.67
2022-11-26T10:38:56.232Z,3.47
2022-11-26T10:41:26.991Z,3.80
2022-11-26T10:43:56.554Z,3.93
2022-11-26T10:46:34.984Z,4.20
2022-11-26T10:49:23.520Z,3.73
2022-11-26T10:51:54.646Z,3.87
2022-11-26T10:54:31.272Z,3.87
2022-11-26T10:57:03.579Z,4.40
2022-11-26T10:59:34.442Z,4.63
2022-11-26T11:02:03.434Z,4.17
2022-11-26T11:04:32.258Z,4.63
2022-11-26T11:07:02.064Z,4.70
2022-11-26T11:09:32.703Z,4.00
2022-11-26T11:12:17.834Z,4.17
2022-11-26T11:14:46.813Z,4.27
2022-11-26T11:17:35.285Z,3.70
2022-11-26T11:20:13.535Z,3.57
2022-11-26T11:22:43.220Z,3.60
2022-11-26T11:25:22.511Z,3.27
2022-11-26T11:27:50.726Z,3.80
2022-11-26T11:30:25.489Z,3.47
2022-11-26T11:32:56.285Z,2.67
2022-11-26T11:35:25.373Z,2.80
2022-11-26T11:37:55.961Z,3.03
2022-11-26T11:40:27.722Z,3.57
2022-11-26T11:42:57.201Z,3.63
2022-11-26T11:45:33.697Z,3.40
2022-11-26T11:48:05.879Z,4.00
2022-11-26T11:50:34.605Z,3.57
2022-11-26T11:53:23.133Z,3.37
2022-11-26T11:56:00.942Z,3.83
2022-11-26T11:59:02.422Z,3.20
2022-11-26T12:01:38.514Z,3.37
2022-11-26T12:04:21.580Z,4.37
2022-11-26T12:06:56.399Z,4.20
2022-11-26T12:09:27.826Z,3.37
2022-11-26T12:11:57.655Z,3.63
2022-11-26T12:14:27.482Z,3.40
2022-11-26T12:16:59.079Z,4.03
2022-11-26T12:19:32.245Z,3.90
2022-11-26T12:22:02.825Z,4.63
2022-11-26T12:24:38.248Z,3.70
2022-11-26T12:27:07.830Z,3.20
2022-11-26T12:29:38.424Z,3.27
2022-11-26T12:32:10.552Z,3.37
2022-11-26T12:34:41.373Z,3.20
2022-11-26T12:37:14.579Z,3.23
2022-11-26T12:39:51.915Z,3.80
2022-11-26T12:42:25.919Z,3.47
2022-11-26T12:44:54.540Z,6.20
2022-11-26T12:47:25.939Z,5.30
2022-11-26T12:50:05.647Z,4.13
2022-11-26T12:52:39.813Z,4.30
2022-11-26T12:55:15.583Z,3.13
2022-11-26T12:57:45.707Z,3.20
2022-11-26T13:00:35.528Z,2.80
2022-11-26T13:03:04.351Z,4.27
2022-11-26T13:05:35.728Z,2.50
2022-11-26T13:08:15.562Z,3.23
2022-11-26T13:10:53.357Z,4.07
2022-11-26T13:13:25.786Z,4.53
2022-11-26T13:16:01.476Z,4.10
2022-11-26T13:18:32.131Z,3.43
2022-11-26T13:21:11.319Z,3.60
2022-11-26T13:23:54.355Z,3.43
2022-11-26T13:26:42.580Z,3.20
2022-11-26T13:29:32.339Z,3.40
2022-11-26T13:32:20.917Z,3.20
2022-11-26T13:35:02.137Z,3.70
2022-11-26T13:37:51.034Z,3.20
2022-11-26T13:40:56.051Z,3.30
2022-11-26T13:44:11.367Z,3.83
2022-11-26T13:46:39.749Z,3.07
2022-11-26T13:49:09.418Z,2.63
2022-11-26T13:51:39.234Z,4.03
2022-11-26T13:54:10.703Z,2.93
2022-11-26T13:56:38.930Z,2.37
2022-11-26T13:59:13.498Z,3.07
2022-11-26T14:01:41.839Z,2.77
2022-11-26T14:04:10.537Z,2.40
2022-11-26T14:06:38.892Z,2.73
2022-11-26T14:09:08.380Z,2.60
2022-11-26T14:11:54.466Z,2.03
2022-11-26T14:14:34.155Z,2.73
2022-11-26T14:17:22.250Z,2.93
2022-11-26T14:20:09.663Z,2.57
2022-11-26T14:22:38.116Z,2.83
2022-11-26T14:25:08.343Z,2.30
2022-11-26T14:27:37.209Z,2.40
2022-11-26T14:30:23.268Z,2.30
2022-11-26T14:32:56.230Z,2.30
2022-11-26T14:35:30.662Z,2.40
2022-11-26T14:38:00.788Z,4.53
2022-11-26T14:40:29.857Z,5.40
2022-11-26T14:43:12.328Z,4.37
2022-11-26T14:45:42.027Z,3.77
2022-11-26T14:48:18.296Z,3.80
2022-11-26T14:50:46.560Z,2.30
2022-11-26T14:53:14.763Z,2.57
2022-11-26T14:55:42.983Z,2.67
2022-11-26T14:58:13.640Z,2.30
2022-11-26T15:00:43.248Z,2.40
2022-11-26T15:03:20.760Z,2.47
2022-11-26T15:05:49.004Z,2.63
2022-11-26T15:08:17.946Z,2.70
2022-11-26T15:10:48.971Z,2.80
2022-11-26T15:13:20.427Z,2.70
2022-11-26T15:15:53.906Z,2.83
2022-11-26T15:18:23.951Z,3.20
2022-11-26T15:20:52.346Z,3.40
2022-11-26T15:23:23.120Z,4.60
2022-11-26T15:25:53.655Z,4.13
2022-11-26T15:28:22.580Z,4.07
2022-11-26T15:30:57.548Z,2.90
2022-11-26T15:33:26.407Z,2.47
2022-11-26T15:35:57.239Z,3.57
2022-11-26T15:38:26.202Z,4.50
2022-11-26T15:40:55.160Z,4.20
2022-11-26T15:43:25.901Z,4.00
2022-11-26T15:45:58.948Z,4.37
2022-11-26T15:48:50.061Z,3.03
2022-11-26T15:51:23.258Z,2.83
2022-11-26T15:53:51.495Z,4.40
2022-11-26T15:56:19.968Z,3.37
2022-11-26T15:58:49.691Z,4.27
2022-11-26T16:01:21.678Z,3.73
2022-11-26T16:03:50.762Z,3.30
2022-11-26T16:06:30.716Z,4.53
2022-11-26T16:09:01.783Z,5.97
2022-11-26T16:11:31.084Z,5.37
2022-11-26T16:13:59.305Z,5.53
2022-11-26T16:16:28.902Z,5.30
2022-11-26T16:18:58.808Z,5.23
2022-11-26T16:21:30.034Z,4.50
2022-11-26T16:24:00.564Z,4.70
2022-11-26T16:26:28.888Z,5.27
2022-11-26T16:28:57.142Z,4.33
2022-11-26T16:31:25.382Z,4.70
2022-11-26T16:33:55.163Z,4.27
2022-11-26T16:36:24.349Z,4.90
2022-11-26T16:38:52.769Z,4.70
2022-11-26T16:41:21.836Z,5.30
2022-11-26T16:43:50.279Z,4.83
2022-11-26T16:46:19.743Z,5.23
2022-11-26T16:48:48.221Z,5.30
2022-11-26T16:51:17.949Z,5.00
2022-11-26T16:53:46.454Z,5.67
2022-11-26T16:56:23.417Z,4.97
2022-11-26T16:58:51.697Z,4.40
2022-11-26T17:01:19.886Z,4.70
2022-11-26T17:03:48.151Z,5.10
2022-11-26T17:06:20.603Z,4.20
2022-11-26T17:08:50.151Z,5.30
2022-11-26T17:11:18.847Z,5.33
2022-11-26T17:13:47.325Z,4.87
2022-11-26T17:16:17.129Z,5.10
2022-11-26T17:18:45.487Z,5.67
2022-11-26T17:21:14.222Z,5.93
2022-11-26T17:23:43.952Z,4.43
2022-11-26T17:26:18.614Z,5.50
2022-11-26T17:28:47.006Z,8.40
2022-11-26T17:31:15.367Z,12.27
2022-11-26T17:33:43.748Z,12.03
2022-11-26T17:36:15.782Z,7.57
2022-11-26T17:38:45.552Z,6.97
2022-11-26T17:41:14.059Z,6.07
2022-11-26T17:43:42.312Z,5.97
2022-11-26T17:46:14.504Z,5.60
2022-11-26T17:48:42.743Z,5.53
2022-11-26T17:51:12.764Z,5.10
2022-11-26T17:53:41.012Z,5.40
2022-11-26T17:56:16.334Z,5.40
2022-11-26T17:58:44.488Z,5.03
2022-11-26T18:01:14.020Z,5.10
2022-11-26T18:03:43.749Z,5.37
2022-11-26T18:06:15.915Z,5.30
2022-11-26T18:08:46.865Z,5.80
2022-11-26T18:11:16.845Z,5.40
2022-11-26T18:13:45.451Z,5.30
2022-11-26T18:16:13.730Z,5.13
2022-11-26T18:18:42.333Z,5.30
2022-11-26T18:21:10.517Z,5.70
2022-11-26T18:23:38.773Z,6.23
2022-11-26T18:26:07.711Z,5.67
2022-11-26T18:28:37.298Z,5.00
2022-11-26T18:31:06.041Z,4.80
2022-11-26T18:33:34.315Z,5.20
2022-11-26T18:36:02.508Z,5.53
2022-11-26T18:38:33.093Z,6.07
2022-11-26T18:41:03.567Z,5.90
2022-11-26T18:43:31.963Z,5.93
2022-11-26T18:46:04.181Z,5.97
2022-11-26T18:48:34.667Z,6.70
2022-11-26T18:51:03.049Z,6.53
2022-11-26T18:53:31.410Z,7.63
2022-11-26T18:55:59.911Z,6.90
2022-11-26T18:58:29.667Z,7.67
2022-11-26T19:00:58.790Z,8.27
2022-11-26T19:03:28.596Z,8.77
2022-11-26T19:05:56.893Z,8.87
2022-11-26T19:08:25.961Z,7.23
2022-11-26T19:10:54.185Z,9.23
2022-11-26T19:13:23.918Z,8.93
2022-11-26T19:15:52.302Z,9.87
2022-11-26T19:18:20.575Z,12.07
2022-11-26T19:20:51.175Z,11.00
2022-11-26T19:23:24.375Z,12.20
2022-11-26T19:25:52.886Z,12.47
2022-11-26T19:28:21.125Z,12.90
2022-11-26T19:31:01.395Z,12.67
2022-11-26T19:33:29.856Z,11.93
2022-11-26T19:35:59.653Z,10.47
2022-11-26T19:38:28.552Z,11.43
2022-11-26T19:40:57.254Z,11.03
2022-11-26T19:43:26.233Z,11.77
2022-11-26T19:46:02.056Z,10.73
2022-11-26T19:48:30.543Z,9.47
2022-11-26T19:51:00.630Z,9.27
2022-11-26T19:53:29.300Z,8.57
2022-11-26T19:55:59.009Z,8.43
2022-11-26T19:58:27.684Z,9.80
2022-11-26T20:00:56.134Z,10.63
2022-11-26T20:03:24.788Z,14.37
2022-11-26T20:05:53.572Z,15.07
2022-11-26T20:08:23.347Z,12.57
2022-11-26T20:10:51.824Z,10.70
2022-11-26T20:13:20.292Z,10.90
2022-11-26T20:15:49.284Z,9.90
2022-11-26T20:18:17.586Z,10.00
2022-11-26T20:20:46.037Z,8.97
2022-11-26T20:23:14.374Z,8.87
2022-11-26T20:25:44.417Z,7.03
2022-11-26T20:28:12.824Z,5.47
2022-11-26T20:30:41.334Z,5.33
2022-11-26T20:33:10.163Z,4.90
2022-11-26T20:35:41.043Z,4.37
2022-11-26T20:38:09.397Z,5.03
2022-11-26T20:40:39.773Z,4.93
2022-11-26T20:43:09.596Z,4.97
2022-11-26T20:45:38.426Z,6.10
2022-11-26T20:48:06.829Z,4.83
2022-11-26T20:50:35.481Z,5.73
2022-11-26T20:53:03.731Z,6.47
2022-11-26T20:55:32.000Z,6.27
2022-11-26T20:58:00.702Z,7.17
2022-11-26T21:00:30.408Z,7.40
2022-11-26T21:03:00.854Z,7.47
2022-11-26T21:05:29.195Z,6.97
2022-11-26T21:07:57.470Z,7.30
2022-11-26T21:10:28.817Z,7.37
2022-11-26T21:12:57.440Z,8.10
2022-11-26T21:15:25.834Z,7.57
2022-11-26T21:17:55.586Z,8.73
2022-11-26T21:20:25.184Z,8.80
2022-11-26T21:22:53.476Z,8.93
2022-11-26T21:25:22.302Z,9.17
2022-11-26T21:27:54.395Z,10.30
2022-11-26T21:30:24.390Z,9.13
2022-11-26T21:32:52.878Z,8.60
2022-11-26T21:35:22.615Z,8.50
2022-11-26T21:37:51.006Z,8.33
2022-11-26T21:40:19.672Z,8.03
2022-11-26T21:42:48.012Z,8.70
2022-11-26T21:45:16.333Z,9.23
2022-11-26T21:47:45.149Z,9.40
2022-11-26T21:50:13.577Z,10.70
2022-11-26T21:52:43.428Z,10.17
2022-11-26T21:55:12.262Z,10.97
2022-11-26T21:57:40.538Z,9.93
2022-11-26T22:00:10.073Z,9.03
2022-11-26T22:02:38.629Z,9.87
2022-11-26T22:05:07.402Z,10.67
2022-11-26T22:07:36.422Z,11.30
2022-11-26T22:10:08.122Z,11.37
2022-11-26T22:12:36.462Z,11.30
2022-11-26T22:15:04.854Z,10.13
2022-11-26T22:17:33.259Z,9.93
2022-11-26T22:20:01.889Z,9.80
2022-11-26T22:22:30.900Z,10.17
2022-11-26T22:24:59.343Z,11.10
2022-11-26T22:27:29.220Z,10.30
2022-11-26T22:29:57.833Z,10.23
2022-11-26T22:32:26.214Z,8.73
2022-11-26T22:34:54.950Z,9.63
2022-11-26T22:37:23.488Z,9.30
2022-11-26T22:39:53.929Z,9.20
2022-11-26T22:42:22.724Z,10.33
2022-11-26T22:44:52.491Z,9.50
2022-11-26T22:47:20.842Z,10.47
2022-11-26T22:49:49.740Z,10.57
2022-11-26T22:52:18.320Z,10.90
2022-11-26T22:54:46.654Z,11.20
2022-11-26T22:57:15.015Z,11.10
2022-11-26T22:59:44.271Z,11.43
2022-11-26T23:02:14.441Z,10.40
2022-11-26T23:04:43.116Z,9.30
2022-11-26T23:07:11.914Z,9.87
2022-11-26T23:09:45.308Z,9.33
2022-11-26T23:12:15.127Z,9.03
2022-11-26T23:14:44.882Z,9.70
2022-11-26T23:17:15.040Z,9.60
2022-11-26T23:19:43.744Z,8.63
2022-11-26T23:22:12.040Z,8.67
2022-11-26T23:24:40.374Z,8.63
2022-11-26T23:27:08.863Z,8.60
2022-11-26T23:29:37.445Z,8.03
2022-11-26T23:32:06.319Z,6.37
2022-11-26T23:34:36.253Z,7.20
2022-11-26T23:37:04.465Z,5.87
2022-11-26T23:39:32.938Z,7.57
2022-11-26T23:42:01.208Z,7.20
2022-11-26T23:44:29.728Z,6.83
2022-11-26T23:46:58.127Z,6.90
2022-11-26T23:49:26.467Z,8.13
2022-11-26T23:51:56.112Z,8.33
2022-11-26T23:54:24.419Z,7.77
2022-11-26T23:56:52.910Z,9.10
2022-11-26T23:59:21.581Z,9.10
